< VanCam Weather - Nearby METAR Reports

Nearby METAR Reports

 

KPDX - Portland Intl
Distance from station: SW 8.9mi, 14.3km
Updated: 10/19/2017 1:53am
Overcast
Overcast
 Wind from SSW
Wind: SSW 14 mph , 22 km/h, Gust: 23 mph , 37 km/h
Temperature: 59°F , 15°C
Dew Point: 50°F , 10°C
Humidity: 72%
Barometer: 29.70 inHg , 1005.8 hPa
Clouds: Overcast
Visibility: 10 miles , 16 km
Cloud details: Overcast 2800 ft
2017/10/19 08:53 KPDX 190853Z 21012G20KT 10SM OVC028 15/10 A2970 RMK AO2 SLP057 T01500100 56007
KVUO - Vancouver
Distance from station: W 10.7mi, 17.2km
Updated: 10/19/2017 1:53am
Light rain, Overcast
Light rain, Overcast
 Wind from SSW
Wind: SSW 10 mph , 17 km/h, Gust: 17 mph , 28 km/h
Temperature: 59°F , 15°C
Dew Point: 52°F , 11°C
Humidity: 77%
Barometer: 29.70 inHg , 1005.8 hPa
Summary: Light rain
Clouds: Overcast
Visibility: 10 miles , 16 km
Cloud details: Overcast 2700 ft
2017/10/19 08:53 KVUO 190853Z AUTO 21009G15KT 170V260 10SM -RA OVC027 15/11 A2970 RMK AO2 RAB47 SLP058 P0000 60000 T01500106 56005
 
KTTD - Troutdale
Distance from station: SSE 8.1mi, 13km
Updated: 10/19/2017 1:53am
Overcast
Overcast
 Wind from SW
Wind: SW 13 mph , 20 km/h, Gust: 21 mph , 33 km/h
Temperature: 61°F , 16°C
Dew Point: 48°F , 9°C
Humidity: 63%
Barometer: 29.70 inHg , 1005.8 hPa
Clouds: Overcast
Visibility: 10 miles , 16 km
Cloud details: Overcast 3200 ft
2017/10/19 08:53 KTTD 190853Z AUTO 23011G18KT 10SM OVC032 16/09 A2970 RMK AO2 SLP058 T01610094 56012
KSPB - Scappoose
Distance from station: WSW 21.6mi, 34.8km
Updated: 10/19/2017 1:53am
Light rain, Mist, Overcast
Light rain, Mist, Overcast
 Wind from ESE
Wind: ESE 7 mph , 11 km/h
Temperature: 54°F , 12°C
Dew Point: 54°F , 12°C
Humidity: 100%
Barometer: 29.69 inHg , 1005.4 hPa
Summary: Light rain, Mist
Clouds: Overcast
Visibility: 6 miles , 10 km
Cloud details: Mostly cloudy 2300 ft
Overcast 3100 ft
2017/10/19 08:53 KSPB 190853Z AUTO 12006KT 6SM -RA BR BKN023 OVC031 12/12 A2969 RMK AO2 SLP054 P0010 60012 T01220122 50000
 
KHIO - Hillsboro
Distance from station: SW 25.8mi, 41.5km
Updated: 10/19/2017 1:53am
Light rain, Mist, Overcast
Light rain, Mist, Overcast
 Wind from S
Wind: S 6 mph , 9 km/h
Temperature: 55°F , 13°C
Dew Point: 52°F , 11°C
Humidity: 88%
Barometer: 29.70 inHg , 1005.8 hPa
Summary: Light rain, Mist
Clouds: Overcast
Visibility: 3 miles , 5 km
Cloud details: Overcast 2000 ft
2017/10/19 08:53 KHIO 190853Z AUTO 19005KT 3SM -RA BR OVC020 13/11 A2970 RMK AO2 RAB03 SLP054 P0005 60005 T01280111 $
KDLS - The Dalles
Distance from station: E 61.4mi, 98.8km
Updated: 10/19/2017 1:53am
Overcast
Overcast
 Wind from NNW
Wind: NNW 6 mph , 9 km/h
Temperature: 55°F , 13°C
Dew Point: 52°F , 11°C
Humidity: 88%
Barometer: 29.65 inHg , 1004.1 hPa
Clouds: Overcast
Visibility: 10 miles , 16 km
Cloud details: Overcast 11000 ft
2017/10/19 08:53 KDLS 190853Z AUTO 33005KT 10SM OVC110 13/11 A2965 RMK AO2 SLP040 T01280106 56015
 
KAST - Astoria
Distance from station: WNW 77.2mi, 124.2km
Updated: 10/19/2017 1:55am
Light rain, Mist, Overcast
Light rain, Mist, Overcast
 Wind from S
Wind: S 6 mph , 9 km/h
Temperature: 52°F , 11°C
Dew Point: 48°F , 9°C
Humidity: 88%
Barometer: 29.66 inHg , 1004.4 hPa
Summary: Light rain, Mist
Clouds: Overcast
Visibility: 5 miles , 8 km
Cloud details: Partly cloudy 6000 ft
Overcast 7500 ft
2017/10/19 08:55 KAST 190855Z AUTO 19005KT 5SM -RA BR SCT060 OVC075 11/09 A2966 RMK AO2 CIG 055 RWY 08 SLP044 P0011 60048 T01110094 58001
KONP - Newport
Distance from station: SW 106mi, 170.4km
Updated: 10/19/2017 1:55am
Light rain, Overcast
Light rain, Overcast
 Wind from S
Wind: S 25 mph , 41 km/h, Gust: 32 mph , 52 km/h
Temperature: 54°F , 12°C
Dew Point: 52°F , 11°C
Humidity: 94%
Barometer: 29.75 inHg , 1007.5 hPa
Summary: Light rain
Clouds: Overcast
Visibility: 2 1/2 miles , 4 km
Cloud details: Overcast 1000 ft
2017/10/19 08:55 KONP 190855Z AUTO 19022G28KT 2 1/2SM -RA OVC010 12/11 A2975 RMK AO2 P0001